Time;durP1;ratioP1;P1;durP2;ratioP2;P2;SDS_P1;SDS_P2;PMS_P1;PMS_P2;Temp;Humidity;BMP_temperature;BMP_pressure;BME280_temperature;BME280_humidity;BME280_pressure;Samples;Min_cycle;Max_cycle;Signal;HPM_P1;HPM_P2
2023/07/12 00:00:23;;;;;;;7.18;2.30;;;;;;;;;;5057101;28;20048;-74
2023/07/12 00:02:49;;;;;;;6.78;2.28;;;;;;;;;;5039116;28;20052;-74
2023/07/12 00:05:16;;;;;;;4.65;2.30;;;;;;;;;;5056740;28;20399;-74
2023/07/12 00:07:45;;;;;;;5.50;2.15;;;;;;;;;;5055955;28;20120;-74
2023/07/12 00:10:16;;;;;;;5.43;2.25;;;;;;;;;;5057450;28;20060;-75
2023/07/12 00:12:42;;;;;;;6.40;2.22;;;;;;;;;;5039230;28;20049;-74
2023/07/12 00:15:10;;;;;;;6.53;2.40;;;;;;;;;;5057657;28;20067;-75
2023/07/12 00:17:36;;;;;;;6.28;2.20;;;;;;;;;;5039484;28;20044;-73
2023/07/12 00:20:03;;;;;;;5.05;2.30;;;;;;;;;;5057613;28;20580;-74
2023/07/12 00:22:29;;;;;;;6.00;2.28;;;;;;;;;;5022690;28;20059;-75
2023/07/12 00:24:55;;;;;;;4.80;2.30;;;;;;;;;;5055690;28;20069;-73
2023/07/12 00:27:21;;;;;;;6.00;2.20;;;;;;;;;;5032393;28;20133;-74
2023/07/12 00:29:47;;;;;;;6.07;2.80;;;;;;;;;;5024129;28;20660;-74
2023/07/12 00:32:13;;;;;;;7.05;2.53;;;;;;;;;;5037947;28;20089;-74
2023/07/12 00:34:39;;;;;;;5.63;2.60;;;;;;;;;;5012398;28;20408;-74
2023/07/12 00:37:11;;;;;;;5.03;2.55;;;;;;;;;;5056427;28;20048;-74
2023/07/12 00:39:37;;;;;;;5.20;1.95;;;;;;;;;;5050417;28;20041;-74
2023/07/12 00:42:06;;;;;;;5.78;2.03;;;;;;;;;;5019805;28;20049;-74
2023/07/12 00:44:32;;;;;;;5.68;2.60;;;;;;;;;;5036493;28;20462;-74
2023/07/12 00:46:58;;;;;;;5.10;2.10;;;;;;;;;;5044795;28;20072;-73
2023/07/12 00:49:25;;;;;;;5.53;2.25;;;;;;;;;;5020452;28;20081;-74
2023/07/12 00:52:00;;;;;;;5.25;2.35;;;;;;;;;;5036669;28;20553;-74
2023/07/12 00:54:27;;;;;;;5.07;2.20;;;;;;;;;;5048595;28;20398;-74
2023/07/12 00:56:53;;;;;;;5.20;2.20;;;;;;;;;;5055795;28;20044;-75
2023/07/12 00:59:22;;;;;;;7.45;2.47;;;;;;;;;;5055390;28;20041;-72
2023/07/12 01:01:53;;;;;;;5.65;2.38;;;;;;;;;;5057119;28;20044;-74
2023/07/12 01:04:21;;;;;;;6.13;2.20;;;;;;;;;;5056557;28;20128;-73
2023/07/12 01:06:49;;;;;;;4.75;2.25;;;;;;;;;;5054565;28;20095;-74
2023/07/12 01:09:17;;;;;;;5.85;2.22;;;;;;;;;;5055999;28;20049;-75
2023/07/12 01:11:43;;;;;;;6.90;2.58;;;;;;;;;;5056398;28;20041;-74
2023/07/12 01:14:11;;;;;;;5.78;2.20;;;;;;;;;;5055990;28;20045;-73
2023/07/12 01:16:38;;;;;;;5.85;2.33;;;;;;;;;;5054606;28;20784;-74
2023/07/12 01:19:04;;;;;;;4.82;2.42;;;;;;;;;;5055547;28;20103;-73
2023/07/12 01:21:33;;;;;;;7.13;2.65;;;;;;;;;;5055068;28;20048;-73
2023/07/12 01:23:59;;;;;;;6.05;2.70;;;;;;;;;;5053431;28;20043;-74
2023/07/12 01:26:36;;;;;;;5.15;2.35;;;;;;;;;;5046920;28;20049;-74
2023/07/12 01:29:04;;;;;;;6.78;2.90;;;;;;;;;;5041999;28;20037;-73
2023/07/12 01:31:30;;;;;;;5.45;2.47;;;;;;;;;;5040673;28;20395;-74
2023/07/12 01:33:56;;;;;;;5.85;2.70;;;;;;;;;;5039592;28;20081;-73
2023/07/12 01:36:23;;;;;;;6.80;2.90;;;;;;;;;;5048897;28;20456;-73
2023/07/12 01:38:53;;;;;;;5.50;2.53;;;;;;;;;;5036000;28;20044;-74
2023/07/12 01:41:19;;;;;;;6.13;2.50;;;;;;;;;;5038407;28;20479;-74
2023/07/12 01:43:45;;;;;;;6.43;2.30;;;;;;;;;;5018501;28;20045;-74
2023/07/12 01:46:12;;;;;;;4.68;2.25;;;;;;;;;;5006929;28;20060;-74
2023/07/12 01:48:38;;;;;;;6.28;2.15;;;;;;;;;;5054610;28;20071;-74
2023/07/12 01:51:04;;;;;;;5.35;2.45;;;;;;;;;;5045147;28;20056;-74
2023/07/12 01:53:33;;;;;;;7.18;2.10;;;;;;;;;;5039806;28;20056;-74
2023/07/12 01:55:59;;;;;;;5.82;2.38;;;;;;;;;;5050947;28;20054;-74
2023/07/12 01:58:26;;;;;;;8.50;2.13;;;;;;;;;;5044531;28;20037;-74
2023/07/12 02:00:52;;;;;;;6.80;2.30;;;;;;;;;;5044769;28;20053;-74
2023/07/12 02:03:18;;;;;;;6.20;2.30;;;;;;;;;;5035856;28;20049;-74
2023/07/12 02:05:45;;;;;;;7.57;2.20;;;;;;;;;;5052669;28;20044;-74
2023/07/12 02:08:11;;;;;;;6.82;2.30;;;;;;;;;;5052577;28;20041;-74
2023/07/12 02:10:37;;;;;;;5.85;2.40;;;;;;;;;;5053637;28;20430;-74
2023/07/12 02:13:04;;;;;;;8.18;2.75;;;;;;;;;;5020158;28;20126;-74
2023/07/12 02:15:30;;;;;;;7.25;3.00;;;;;;;;;;5053836;28;20045;-74
2023/07/12 02:17:56;;;;;;;6.82;2.63;;;;;;;;;;5054496;28;20410;-74
2023/07/12 02:20:22;;;;;;;8.65;2.70;;;;;;;;;;5052942;28;20051;-73
2023/07/12 02:22:49;;;;;;;6.63;2.67;;;;;;;;;;5051864;28;20045;-73
2023/07/12 02:25:16;;;;;;;7.05;2.95;;;;;;;;;;5038499;28;20499;-73
2023/07/12 02:27:44;;;;;;;7.00;2.80;;;;;;;;;;5053195;28;20049;-73
2023/07/12 02:30:12;;;;;;;7.72;2.83;;;;;;;;;;5034922;28;20045;-72
2023/07/12 02:32:38;;;;;;;7.82;2.85;;;;;;;;;;5053494;28;20403;-73
2023/07/12 02:35:04;;;;;;;7.38;2.95;;;;;;;;;;5054122;28;20041;-74
2023/07/12 02:37:30;;;;;;;6.55;3.05;;;;;;;;;;5053161;28;20120;-74
2023/07/12 02:39:56;;;;;;;5.65;3.15;;;;;;;;;;5052422;28;20546;-73
2023/07/12 02:42:22;;;;;;;7.45;3.03;;;;;;;;;;5033795;28;20087;-73
2023/07/12 02:44:49;;;;;;;7.68;3.30;;;;;;;;;;5035810;28;20037;-73
2023/07/12 02:47:15;;;;;;;6.72;3.10;;;;;;;;;;5031504;28;20124;-74
2023/07/12 02:49:41;;;;;;;6.32;3.03;;;;;;;;;;5052265;28;20037;-73
2023/07/12 02:52:09;;;;;;;7.07;3.05;;;;;;;;;;5051559;28;20475;-74
2023/07/12 02:54:35;;;;;;;7.38;3.40;;;;;;;;;;5045942;28;20048;-74
2023/07/12 02:57:02;;;;;;;9.82;3.35;;;;;;;;;;5043957;28;20443;-74
2023/07/12 02:59:28;;;;;;;7.72;3.30;;;;;;;;;;5041625;28;20067;-74
2023/07/12 03:01:54;;;;;;;8.85;3.70;;;;;;;;;;5041889;28;20076;-74
2023/07/12 03:04:21;;;;;;;7.60;3.30;;;;;;;;;;5043054;28;20440;-73
2023/07/12 03:06:48;;;;;;;8.73;3.30;;;;;;;;;;5024881;28;20514;-74
2023/07/12 03:09:14;;;;;;;9.18;3.30;;;;;;;;;;5042806;28;20454;-73
2023/07/12 03:11:40;;;;;;;5.45;3.03;;;;;;;;;;5042672;28;20037;-71
2023/07/12 03:14:06;;;;;;;7.85;3.47;;;;;;;;;;5041686;28;20059;-74
2023/07/12 03:16:33;;;;;;;11.63;3.90;;;;;;;;;;5042980;28;20115;-73
2023/07/12 03:19:00;;;;;;;9.15;3.50;;;;;;;;;;5041472;28;20033;-73
2023/07/12 03:21:26;;;;;;;13.48;3.40;;;;;;;;;;5027204;28;20088;-74
2023/07/12 03:23:52;;;;;;;8.70;3.85;;;;;;;;;;5042925;28;20048;-74
2023/07/12 03:26:19;;;;;;;8.02;3.00;;;;;;;;;;5041599;28;20049;-73
2023/07/12 03:28:45;;;;;;;7.75;3.20;;;;;;;;;;5044289;28;20068;-73
2023/07/12 03:31:13;;;;;;;12.80;3.72;;;;;;;;;;5041017;28;20107;-73
2023/07/12 03:33:39;;;;;;;12.18;3.42;;;;;;;;;;5043595;28;20049;-74
2023/07/12 03:36:06;;;;;;;7.93;3.60;;;;;;;;;;5045222;28;20041;-73
2023/07/12 03:38:32;;;;;;;9.75;3.33;;;;;;;;;;5045833;28;20055;-73
2023/07/12 03:41:00;;;;;;;11.32;4.35;;;;;;;;;;5047370;28;20048;-73
2023/07/12 03:43:26;;;;;;;8.05;3.25;;;;;;;;;;5047114;28;20048;-73
2023/07/12 03:45:53;;;;;;;9.75;4.65;;;;;;;;;;5042641;28;20041;-73
2023/07/12 03:48:20;;;;;;;10.30;3.70;;;;;;;;;;5024531;28;20072;-74
2023/07/12 03:50:49;;;;;;;7.55;3.78;;;;;;;;;;5045862;28;20045;-73
2023/07/12 03:53:15;;;;;;;9.63;4.00;;;;;;;;;;5045181;28;20045;-73
2023/07/12 03:55:43;;;;;;;8.15;3.97;;;;;;;;;;5049187;28;20138;-73
2023/07/12 03:58:09;;;;;;;11.25;4.55;;;;;;;;;;5050060;28;20044;-73
2023/07/12 04:00:36;;;;;;;11.80;5.05;;;;;;;;;;5046121;28;20048;-73
2023/07/12 04:03:02;;;;;;;8.88;4.07;;;;;;;;;;5035352;28;20081;-73
2023/07/12 04:05:28;;;;;;;8.43;3.85;;;;;;;;;;5023209;28;20041;-72
2023/07/12 04:07:56;;;;;;;10.95;4.80;;;;;;;;;;5036349;28;20107;-72
2023/07/12 04:10:22;;;;;;;11.60;4.50;;;;;;;;;;5036103;28;20054;-73
2023/07/12 04:12:49;;;;;;;10.93;4.43;;;;;;;;;;5029320;28;20052;-73
2023/07/12 04:15:15;;;;;;;11.85;4.22;;;;;;;;;;5054908;28;20451;-73
2023/07/12 04:17:41;;;;;;;13.27;4.45;;;;;;;;;;5055359;28;20070;-73
2023/07/12 04:20:07;;;;;;;15.27;5.00;;;;;;;;;;5055790;28;20081;-73
2023/07/12 04:22:33;;;;;;;12.85;4.32;;;;;;;;;;5046600;28;20523;-73
2023/07/12 04:24:59;;;;;;;11.15;4.45;;;;;;;;;;5040609;28;20411;-73
2023/07/12 04:27:25;;;;;;;9.73;4.53;;;;;;;;;;5055235;28;20068;-73
2023/07/12 04:29:51;;;;;;;10.65;4.95;;;;;;;;;;5054830;28;20040;-73
2023/07/12 04:32:17;;;;;;;14.50;4.82;;;;;;;;;;5051771;28;20053;-72
2023/07/12 04:34:43;;;;;;;10.88;4.50;;;;;;;;;;5044425;28;20440;-73
2023/07/12 04:37:09;;;;;;;10.30;3.90;;;;;;;;;;5043814;28;20048;-72
2023/07/12 04:39:35;;;;;;;10.88;4.10;;;;;;;;;;5046108;28;20041;-72
2023/07/12 04:42:01;;;;;;;9.32;4.35;;;;;;;;;;5044975;28;20049;-73
2023/07/12 04:44:27;;;;;;;11.25;4.53;;;;;;;;;;5045149;28;20407;-73
2023/07/12 04:46:53;;;;;;;10.98;4.60;;;;;;;;;;5043968;28;20163;-73
2023/07/12 04:49:20;;;;;;;10.18;4.10;;;;;;;;;;5044427;28;20049;-73
2023/07/12 04:51:46;;;;;;;10.95;4.00;;;;;;;;;;5043043;28;20114;-72
2023/07/12 04:54:12;;;;;;;16.13;4.20;;;;;;;;;;5044107;28;20049;-73
2023/07/12 04:56:38;;;;;;;11.88;4.47;;;;;;;;;;5044233;28;20177;-73
2023/07/12 04:59:04;;;;;;;8.50;3.75;;;;;;;;;;5046295;28;20040;-73
2023/07/12 05:01:31;;;;;;;10.88;3.58;;;;;;;;;;5045842;28;20455;-73
2023/07/12 05:03:57;;;;;;;9.40;3.58;;;;;;;;;;5051968;28;20044;-75
2023/07/12 05:06:23;;;;;;;8.32;3.03;;;;;;;;;;5052008;28;20182;-73
2023/07/12 05:08:49;;;;;;;12.30;3.50;;;;;;;;;;5046283;28;20048;-74
2023/07/12 05:11:16;;;;;;;10.98;3.70;;;;;;;;;;5045619;28;20078;-72
2023/07/12 05:13:42;;;;;;;7.95;3.13;;;;;;;;;;5026650;28;20045;-72
2023/07/12 05:16:08;;;;;;;11.45;4.15;;;;;;;;;;5040788;28;20037;-72
2023/07/12 05:18:34;;;;;;;8.50;3.03;;;;;;;;;;5047185;28;20052;-74
2023/07/12 05:21:00;;;;;;;10.52;3.38;;;;;;;;;;5043350;28;20490;-74
2023/07/12 05:23:26;;;;;;;11.30;3.60;;;;;;;;;;5045480;28;20052;-73
2023/07/12 05:25:53;;;;;;;12.07;3.90;;;;;;;;;;5045008;28;20045;-73
2023/07/12 05:28:20;;;;;;;10.38;3.22;;;;;;;;;;5047241;28;20513;-73
2023/07/12 05:30:46;;;;;;;12.60;3.80;;;;;;;;;;5039365;28;20041;-74
2023/07/12 05:33:12;;;;;;;12.52;3.92;;;;;;;;;;5037618;28;20487;-74
2023/07/12 05:35:38;;;;;;;10.27;3.58;;;;;;;;;;5045706;28;20040;-74
2023/07/12 05:38:04;;;;;;;13.63;4.07;;;;;;;;;;5042507;28;20037;-73
2023/07/12 05:40:30;;;;;;;11.55;3.92;;;;;;;;;;5045219;28;20047;-74
2023/07/12 20:03:56;;;;;;;4.90;1.20;;;;;;;;;;4703421;27;20120;-77
2023/07/12 20:06:22;;;;;;;6.70;1.40;;;;;;;;;;5105687;27;20056;-76
2023/07/12 20:08:49;;;;;;;4.85;1.20;;;;;;;;;;5115747;28;20050;-77
2023/07/12 20:11:16;;;;;;;3.60;1.00;;;;;;;;;;5125633;27;20046;-77
2023/07/12 20:13:43;;;;;;;3.17;1.23;;;;;;;;;;5117509;27;20052;-77
2023/07/12 20:16:09;;;;;;;4.50;1.27;;;;;;;;;;5098784;28;20047;-76
2023/07/12 20:18:36;;;;;;;5.15;1.20;;;;;;;;;;5114660;27;20070;-77
2023/07/12 20:21:04;;;;;;;4.60;1.13;;;;;;;;;;5117456;28;20489;-76
2023/07/12 20:23:31;;;;;;;8.38;1.13;;;;;;;;;;5099231;28;20350;-77
2023/07/12 20:25:57;;;;;;;5.20;1.30;;;;;;;;;;5103309;27;20044;-77
2023/07/12 20:28:25;;;;;;;4.50;1.20;;;;;;;;;;5110625;28;20128;-76
2023/07/12 20:30:51;;;;;;;4.60;1.13;;;;;;;;;;5121573;27;20035;-77
2023/07/12 20:33:18;;;;;;;4.22;1.42;;;;;;;;;;5121755;27;20040;-76
2023/07/12 20:35:44;;;;;;;4.13;0.98;;;;;;;;;;5110283;27;20435;-77
2023/07/12 20:38:10;;;;;;;6.15;1.40;;;;;;;;;;5107002;27;20171;-77
2023/07/12 20:40:37;;;;;;;4.35;1.27;;;;;;;;;;5110686;27;20126;-77
2023/07/12 20:43:04;;;;;;;4.40;1.25;;;;;;;;;;5115057;28;20095;-77
2023/07/12 20:45:34;;;;;;;5.35;1.48;;;;;;;;;;5112841;28;20401;-76
2023/07/12 20:48:01;;;;;;;3.70;1.30;;;;;;;;;;5094250;28;20048;-77
2023/07/12 20:50:27;;;;;;;5.22;1.40;;;;;;;;;;5113084;28;20040;-77
2023/07/12 20:52:54;;;;;;;5.60;1.50;;;;;;;;;;5114078;28;20046;-77
2023/07/12 20:55:26;;;;;;;9.05;1.52;;;;;;;;;;5113751;27;20047;-77
2023/07/12 20:57:52;;;;;;;4.13;1.33;;;;;;;;;;5113558;27;20124;-77
2023/07/12 21:00:19;;;;;;;5.15;1.42;;;;;;;;;;5110433;27;20047;-78
2023/07/12 21:02:46;;;;;;;5.32;1.40;;;;;;;;;;5111699;28;20381;-77
2023/07/12 21:05:14;;;;;;;4.95;1.58;;;;;;;;;;5112065;28;20056;-77
2023/07/12 21:07:41;;;;;;;6.55;1.83;;;;;;;;;;5093857;28;20059;-77
2023/07/12 21:10:08;;;;;;;4.53;1.60;;;;;;;;;;5110408;28;20507;-76
2023/07/12 21:12:34;;;;;;;5.28;1.73;;;;;;;;;;5115754;28;20050;-79
2023/07/12 21:15:01;;;;;;;6.85;1.50;;;;;;;;;;5118904;28;20035;-79
2023/07/12 21:17:27;;;;;;;6.25;1.40;;;;;;;;;;5118061;28;20390;-78
2023/07/12 21:19:55;;;;;;;8.25;1.70;;;;;;;;;;5115857;27;20044;-78
2023/07/12 21:22:21;;;;;;;5.03;1.50;;;;;;;;;;5100344;28;20047;-78
2023/07/12 21:24:47;;;;;;;6.70;2.05;;;;;;;;;;5117162;28;20065;-77
2023/07/12 21:27:14;;;;;;;5.75;1.50;;;;;;;;;;5116697;28;20091;-77
2023/07/12 21:29:40;;;;;;;7.13;1.60;;;;;;;;;;5109129;28;20099;-77
2023/07/12 21:32:06;;;;;;;7.93;1.77;;;;;;;;;;5120751;28;20035;-78
2023/07/12 21:34:32;;;;;;;6.95;2.00;;;;;;;;;;5117687;28;20044;-79
2023/07/12 21:36:59;;;;;;;9.10;2.10;;;;;;;;;;5117650;28;20143;-78
2023/07/12 21:39:25;;;;;;;5.20;1.65;;;;;;;;;;5114394;28;20113;-78
2023/07/12 21:41:52;;;;;;;5.95;1.98;;;;;;;;;;5090647;28;20119;-78
2023/07/12 21:44:18;;;;;;;7.30;2.10;;;;;;;;;;5110114;28;20093;-77
2023/07/12 21:46:44;;;;;;;6.53;2.00;;;;;;;;;;5097424;28;20027;-76
2023/07/12 21:49:10;;;;;;;4.32;1.70;;;;;;;;;;5118178;27;20128;-77
2023/07/12 21:51:36;;;;;;;8.48;2.00;;;;;;;;;;5114498;28;20390;-76
2023/07/12 21:54:03;;;;;;;7.63;1.92;;;;;;;;;;5118003;28;20036;-78
2023/07/12 21:56:29;;;;;;;5.70;1.80;;;;;;;;;;5121345;28;20044;-78
2023/07/12 21:58:56;;;;;;;7.45;2.10;;;;;;;;;;5114375;28;20413;-76
2023/07/12 22:01:23;;;;;;;6.88;1.85;;;;;;;;;;5096977;28;20075;-76
2023/07/12 22:03:49;;;;;;;5.80;1.90;;;;;;;;;;5115579;28;20103;-78
2023/07/12 22:06:16;;;;;;;8.65;2.08;;;;;;;;;;5094435;28;20051;-76
2023/07/12 22:08:42;;;;;;;5.47;1.75;;;;;;;;;;5110264;27;20674;-76
2023/07/12 22:11:10;;;;;;;7.45;2.05;;;;;;;;;;5112712;28;20374;-77
2023/07/12 22:13:37;;;;;;;6.65;2.10;;;;;;;;;;5107775;28;20078;-76
2023/07/12 22:16:03;;;;;;;6.05;1.60;;;;;;;;;;5097048;28;20066;-77
2023/07/12 22:18:29;;;;;;;7.03;2.45;;;;;;;;;;5114615;28;20071;-77
2023/07/12 22:20:55;;;;;;;6.75;1.98;;;;;;;;;;5115284;28;20165;-77
2023/07/12 22:23:22;;;;;;;6.72;1.83;;;;;;;;;;5113412;28;20044;-78
2023/07/12 22:25:48;;;;;;;7.85;2.00;;;;;;;;;;5112757;28;20040;-77
2023/07/12 22:28:15;;;;;;;8.05;2.00;;;;;;;;;;5113884;28;20080;-78
2023/07/12 22:30:41;;;;;;;7.75;2.03;;;;;;;;;;5112322;28;20123;-78
2023/07/12 22:33:07;;;;;;;7.85;1.83;;;;;;;;;;5114773;28;20128;-77
2023/07/12 22:35:34;;;;;;;6.68;2.10;;;;;;;;;;5093934;28;20112;-77
2023/07/12 22:38:00;;;;;;;7.93;2.28;;;;;;;;;;5111935;28;20138;-77
2023/07/12 22:40:28;;;;;;;7.55;2.30;;;;;;;;;;5101711;28;20046;-77
2023/07/12 22:42:55;;;;;;;7.00;2.17;;;;;;;;;;5105869;28;20048;-77
2023/07/12 22:45:21;;;;;;;7.82;2.40;;;;;;;;;;5095000;28;20079;-77
2023/07/12 22:47:47;;;;;;;8.00;2.50;;;;;;;;;;5087137;28;20048;-78
2023/07/12 22:50:15;;;;;;;7.72;2.20;;;;;;;;;;5112793;28;20048;-78
2023/07/12 22:52:42;;;;;;;9.55;2.22;;;;;;;;;;5108525;28;20048;-78
2023/07/12 22:55:10;;;;;;;7.70;2.53;;;;;;;;;;5094619;28;20039;-77
2023/07/12 22:57:36;;;;;;;7.50;2.35;;;;;;;;;;5112673;28;20128;-78
2023/07/12 23:00:03;;;;;;;7.13;2.42;;;;;;;;;;5108261;28;20035;-77
2023/07/12 23:02:29;;;;;;;6.97;2.30;;;;;;;;;;5100298;28;20082;-77
2023/07/12 23:04:56;;;;;;;7.28;2.10;;;;;;;;;;5105517;28;20075;-77
2023/07/12 23:07:22;;;;;;;7.35;2.30;;;;;;;;;;5111913;28;20048;-78
2023/07/12 23:09:49;;;;;;;6.18;2.00;;;;;;;;;;5107768;28;20035;-78
2023/07/12 23:12:16;;;;;;;7.65;2.08;;;;;;;;;;5103038;28;20066;-77
2023/07/12 23:14:43;;;;;;;9.23;2.30;;;;;;;;;;5096653;28;20109;-78
2023/07/12 23:17:09;;;;;;;8.07;2.00;;;;;;;;;;5100367;28;20123;-78
2023/07/12 23:19:36;;;;;;;8.45;2.05;;;;;;;;;;5111192;28;20086;-78
2023/07/12 23:22:03;;;;;;;8.05;1.92;;;;;;;;;;5109875;28;20039;-78
2023/07/12 23:24:30;;;;;;;7.22;1.83;;;;;;;;;;5114834;28;20097;-77
2023/07/12 23:27:03;;;;;;;7.72;2.25;;;;;;;;;;5090210;28;20044;-78
2023/07/12 23:29:31;;;;;;;6.25;1.90;;;;;;;;;;5114992;28;20105;-79
2023/07/12 23:31:57;;;;;;;6.03;1.58;;;;;;;;;;5113661;28;20157;-77
2023/07/12 23:34:24;;;;;;;7.22;1.90;;;;;;;;;;5115318;28;20494;-78
2023/07/12 23:36:50;;;;;;;7.88;2.03;;;;;;;;;;5103078;28;20511;-78
2023/07/12 23:39:16;;;;;;;7.82;1.75;;;;;;;;;;5107077;28;20044;-78
2023/07/12 23:41:45;;;;;;;11.52;2.28;;;;;;;;;;5095354;28;20114;-78
2023/07/12 23:44:11;;;;;;;7.43;2.08;;;;;;;;;;5105237;28;20088;-78
2023/07/12 23:46:42;;;;;;;12.30;1.98;;;;;;;;;;5093144;28;20042;-78
2023/07/12 23:49:09;;;;;;;9.23;2.10;;;;;;;;;;5114511;27;20043;-78
2023/07/12 23:51:35;;;;;;;10.73;2.33;;;;;;;;;;5087585;28;20055;-78
2023/07/12 23:54:02;;;;;;;9.45;1.90;;;;;;;;;;5114672;28;20043;-79
2023/07/12 23:56:28;;;;;;;10.32;2.08;;;;;;;;;;5110879;28;20044;-78
2023/07/12 23:58:54;;;;;;;10.80;2.03;;;;;;;;;;5112819;28;20075;-77
